Details From VOBG - Bangalore
To VOHY - HYDERABAD
Flight Number -
Tags generated
Created
Modified
Stats Distance 275 nm / 509 km
Max Altitude 33,200 ft / 10,119 m
Waypoints 5
Social Downloads 0
Likes 0
Share VATSIM

Download

Looking for another format? Having issues loading an existing format? Contact us
Advertisement - Login to hide

Notes

Basic altitude profile: - Ascent Rate: 2500ft/min - Ascent Speed: 250kts - Cruise Altitude: 35000ft - Cruise Speed: 420kts - Descent Rate: 1500ft/min - Descent Speed: 250kts Options: - Use NATs: yes - Use PACOTS: yes - Use low airways: yes - Use high airways: yes

Route

VOBG LATID W57 HHY VOHY

ID Type Via Altitude Latitude Longitude Leg Dist Tot Dist Heading (true) Name
O VOBG APT - 0 ft / 0 m 12.95016˚ 77.67065˚ - 0 nm - Bangalore
LATID FIX - 33,200 ft / 10,119 m 14.47629˚ 77.94875˚ 93 nm 93 nm 10° / 10° -
VIRAM FIX W57 (AWY-HI) 27,400 ft / 8,352 m 15.35956˚ 78.09872˚ 53 nm 146 nm 9° / 9° -
HHY VOR W57 (AWY-LO) 10,000 ft / 3,048 m 17.45444˚ 78.45750˚ 127 nm 274 nm 9° / 9° HYDERABAD VOR-DME
O VOHY APT - 0 ft / 0 m 17.45325˚ 78.46909˚ 0 nm 275 nm 96° / 96° HYDERABAD

Altitude Profile

Advertisement - Login to hide

Weather


0- 5 10 15 20 25 30 35+ Temperature / ° C

Clouds and Precipitation
Forecast for 2017-12-16 18:00 UTC. Updated 5 minutes ago

Ground ~20,000 ft ~40,000 ft Winds

VOBG

Details ICAO VOBG
Name Bangalore
Region India
Timezone Asia/Kolkata (UTC+5.5)
Stats Elevation 2,912 ft / 888 m (AMSL)
Location 12.950157° 77.670647°
Runways 1
Magnetic Variation 1.216° W

METAR

VOBG 161500Z 10008KT 8000 NSC 20/16 Q1019

Decode

TAF

Not found

Departure Runways

ID Width Length Bearing (true) Bearing (mag) Surface Threshold Offset Overrun Length
09 200 ft / 61 m 10,786 ft / 3,288 m 84.80° 86.02° Asphalt 0 ft / 0 m 950 ft / 290 m
27 200 ft / 61 m 10,786 ft / 3,288 m 264.81° 266.03° Asphalt 0 ft / 0 m 980 ft / 299 m

VOHY

Details ICAO VOHY (HYD)
Name HYDERABAD
Region India
Timezone Asia/Kolkata (UTC+5.5)
Stats Elevation 1,742 ft / 531 m (AMSL)
Location 17.453253° 78.469092°
Runways 1
Magnetic Variation 0.581° W

METAR

VOHY 161500Z 00000KT 6000 NSC 22/16 Q1021 NOSIG

Decode

TAF

Not found

Destination Runways

ID Width Length Bearing (true) Bearing (mag) Surface Threshold Offset Overrun Length
09 148 ft / 45 m 10,585 ft / 3,226 m 88.81° 89.39° Asphalt 1,575 ft / 480 m 200 ft / 61 m
27 148 ft / 45 m 10,585 ft / 3,226 m 268.82° 269.40° Asphalt 2,424 ft / 739 m 200 ft / 61 m

Approach Navaids

Runway Type Ident Frequency Range Bearing (true) Bearing (mag) Slope Elevation
27 Localiser IHYD 110.10 MHz 18 nm / 33 km 268.98° 269.57° - 1,742 ft / 531 m (AMSL)
27 Glidescope IHYD 110.10 MHz 10 nm / 19 km 268.81° 269.40° 3.00° 1,742 ft / 531 m (AMSL)
27 DME IHYD 110.10 MHz 18 nm / 33 km - - - 1,742 ft / 531 m (AMSL)

Popular Alternatives